< < Back
Terminal Aerodrome Forecast


Current Version              Previous Versions:   1  2  3  4  5  6  7  8  9  

Terminal Aerodrome Forecast

119
FTUS42 KFFC 042323
TAFCSG
TAF
KCSG 042323Z 0500/0524 29012KT P6SM FEW060
     FM050200 23006KT P6SM BKN060
     FM050900 30008KT P6SM SCT060
     FM051500 31012G20KT P6SM BKN060=

Latest METAR

407
SAUS70 KWBC 050100 RRA
MTRCSG
METAR KCSG 050051Z AUTO 27005KT 10SM CLR 19/07 A2974 RMK AO2 SLP066
T01890067


USA.gov is the U.S. government's official web portal to all federal, state and local government web resources and services.